Time;durP1;ratioP1;P1;durP2;ratioP2;P2;SDS_P1;SDS_P2;PMS_P1;PMS_P2;Temp;Humidity;BMP_temperature;BMP_pressure;BME280_temperature;BME280_humidity;BME280_pressure;Samples;Min_cycle;Max_cycle;Signal;HPM_P1;HPM_P2
2024/04/13 00:04:47;;;;;;;5.32;1.60;;;12.10;99.90;;;;;;15299992;19;20598;-78
2024/04/13 00:09:48;;;;;;;3.85;1.00;;;12.00;99.90;;;;;;15305297;19;20150;-78
2024/04/13 00:14:51;;;;;;;2.42;1.33;;;11.90;99.90;;;;;;15307320;19;20158;-79
2024/04/13 00:19:51;;;;;;;3.55;1.48;;;12.00;99.90;;;;;;15307611;19;20123;-78
2024/04/13 00:24:52;;;;;;;2.45;1.30;;;11.90;99.90;;;;;;15319239;19;20126;-78
2024/04/13 00:29:53;;;;;;;4.00;1.35;;;12.00;99.90;;;;;;15313097;19;20126;-78
2024/04/13 00:34:54;;;;;;;2.53;1.40;;;11.80;99.90;;;;;;15338579;19;20663;-79
2024/04/13 00:39:54;;;;;;;2.92;1.33;;;12.00;99.90;;;;;;15340646;19;20115;-79
2024/04/13 00:45:04;;;;;;;2.95;1.20;;;11.80;99.90;;;;;;15327113;19;20131;-79
2024/04/13 00:50:11;;;;;;;2.17;1.40;;;11.60;99.90;;;;;;15299147;19;20122;-79
2024/04/13 00:55:12;;;;;;;3.47;2.20;;;11.40;99.90;;;;;;15300698;19;20150;-78
2024/04/13 01:00:13;;;;;;;3.00;1.73;;;11.40;99.90;;;;;;15292905;19;20145;-78
2024/04/13 01:05:14;;;;;;;2.15;1.00;;;11.30;99.90;;;;;;15294965;19;20209;-78
2024/04/13 01:10:16;;;;;;;2.08;1.10;;;11.30;99.90;;;;;;15298898;19;20126;-78
2024/04/13 01:15:17;;;;;;;3.37;1.40;;;11.40;99.90;;;;;;15302157;19;20261;-79
2024/04/13 01:20:17;;;;;;;2.73;1.27;;;11.60;99.90;;;;;;15294755;19;20115;-78
2024/04/13 01:25:21;;;;;;;5.33;1.47;;;11.40;99.90;;;;;;15293497;19;20172;-79
2024/04/13 01:30:22;;;;;;;2.93;1.13;;;11.30;99.90;;;;;;15296679;19;20142;-78
2024/04/13 01:35:23;;;;;;;2.05;1.10;;;11.30;99.90;;;;;;15301702;19;20607;-78
2024/04/13 01:40:23;;;;;;;1.90;1.00;;;11.20;99.90;;;;;;15293711;19;20187;-78
2024/04/13 01:45:25;;;;;;;4.63;1.97;;;11.20;99.90;;;;;;15296870;19;20206;-78
2024/04/13 01:50:26;;;;;;;2.23;1.10;;;11.20;99.90;;;;;;15293899;19;20121;-78
2024/04/13 01:55:26;;;;;;;1.47;0.80;;;11.30;99.90;;;;;;15297749;19;20146;-78
2024/04/13 02:00:27;;;;;;;2.17;1.50;;;11.30;99.90;;;;;;15297373;19;20122;-79
2024/04/13 02:05:27;;;;;;;2.07;1.10;;;10.70;99.90;;;;;;15324141;19;20130;-79
2024/04/13 02:10:28;;;;;;;2.37;1.00;;;10.60;99.90;;;;;;15307021;19;20114;-78
2024/04/13 02:15:28;;;;;;;4.97;1.50;;;10.70;99.90;;;;;;15300932;19;20156;-79
2024/04/13 02:20:29;;;;;;;2.80;1.40;;;10.50;99.90;;;;;;15288835;19;20159;-78
2024/04/13 02:25:30;;;;;;;3.00;1.20;;;10.40;99.90;;;;;;15286584;19;20859;-79
2024/04/13 02:30:31;;;;;;;2.87;1.17;;;10.40;99.90;;;;;;15291342;19;20144;-78
2024/04/13 02:35:31;;;;;;;3.97;2.10;;;10.40;99.90;;;;;;15294123;19;20165;-78
2024/04/13 02:40:32;;;;;;;4.57;1.17;;;10.40;99.90;;;;;;15287934;19;20197;-78
2024/04/13 02:45:35;;;;;;;1.47;0.90;;;10.50;99.90;;;;;;15286426;19;20134;-78
2024/04/13 02:50:35;;;;;;;2.50;1.13;;;10.70;99.90;;;;;;15309417;19;20158;-79
2024/04/13 02:55:36;;;;;;;2.13;1.00;;;10.90;99.90;;;;;;15306910;19;20489;-78
2024/04/13 03:00:36;;;;;;;8.47;1.70;;;10.80;99.90;;;;;;15285310;19;20134;-78
2024/04/13 03:05:37;;;;;;;2.60;1.47;;;10.60;99.90;;;;;;15286706;19;20626;-78
2024/04/13 03:10:38;;;;;;;2.23;1.20;;;10.50;99.90;;;;;;15289122;19;20126;-78
2024/04/13 03:15:39;;;;;;;3.00;1.30;;;10.50;99.90;;;;;;15294970;19;20158;-78
2024/04/13 03:20:39;;;;;;;2.17;1.10;;;10.40;99.90;;;;;;15284320;19;20201;-78
2024/04/13 03:25:40;;;;;;;1.80;1.03;;;10.30;99.90;;;;;;15298634;19;20480;-78
2024/04/13 03:30:41;;;;;;;3.07;1.30;;;10.00;99.90;;;;;;15290298;19;20119;-78
2024/04/13 03:35:42;;;;;;;3.13;1.40;;;10.00;99.90;;;;;;15288031;19;20122;-78
2024/04/13 03:40:44;;;;;;;1.57;1.00;;;10.20;99.90;;;;;;15296754;19;20110;-78
2024/04/13 03:45:53;;;;;;;2.00;0.93;;;10.30;99.90;;;;;;15310758;19;20118;-79
2024/04/13 03:50:53;;;;;;;2.53;1.10;;;10.30;99.90;;;;;;15299453;19;20250;-78
2024/04/13 03:55:54;;;;;;;2.17;1.13;;;10.30;99.90;;;;;;15300483;19;20151;-78
2024/04/13 04:00:54;;;;;;;4.67;1.10;;;10.20;99.90;;;;;;15295522;19;20171;-78
2024/04/13 04:05:55;;;;;;;4.30;1.40;;;10.10;99.90;;;;;;15310842;19;20146;-79
2024/04/13 04:10:55;;;;;;;1.83;1.00;;;10.10;99.90;;;;;;15301285;19;20130;-78
2024/04/13 04:15:56;;;;;;;3.43;1.10;;;10.10;99.90;;;;;;15302718;19;20581;-79
2024/04/13 04:20:56;;;;;;;3.83;1.30;;;10.10;99.90;;;;;;15298623;19;20480;-78
2024/04/13 04:25:57;;;;;;;2.40;1.07;;;10.10;99.90;;;;;;15310800;19;20134;-78
2024/04/13 04:31:10;;;;;;;2.77;1.10;;;10.10;99.90;;;;;;15300410;19;20145;-78
2024/04/13 04:36:10;;;;;;;2.10;1.03;;;10.10;99.90;;;;;;15297227;19;20127;-78
2024/04/13 04:41:11;;;;;;;2.90;1.17;;;9.90;99.90;;;;;;15296682;19;20153;-78
2024/04/13 04:46:11;;;;;;;3.10;1.33;;;9.70;99.90;;;;;;15296706;19;20210;-77
2024/04/13 04:51:12;;;;;;;2.97;0.97;;;9.70;99.90;;;;;;15294939;19;20237;-77
2024/04/13 04:56:13;;;;;;;3.47;1.80;;;9.90;99.90;;;;;;15296620;19;20158;-79
2024/04/13 05:01:14;;;;;;;4.63;1.30;;;10.10;99.90;;;;;;15301931;19;20150;-78
2024/04/13 05:06:14;;;;;;;2.93;1.47;;;10.10;99.90;;;;;;15297662;19;20630;-79
2024/04/13 05:11:15;;;;;;;2.17;1.20;;;10.20;99.90;;;;;;15293313;19;20146;-77
2024/04/13 05:16:15;;;;;;;2.67;1.23;;;10.30;99.90;;;;;;15288676;19;20136;-77
2024/04/13 05:21:16;;;;;;;2.23;1.10;;;10.30;99.90;;;;;;15289948;19;20485;-78
2024/04/13 05:26:16;;;;;;;3.47;1.20;;;10.20;99.90;;;;;;15291645;19;20126;-78
2024/04/13 05:31:17;;;;;;;1.90;0.90;;;10.30;99.90;;;;;;15294076;19;20244;-78
2024/04/13 05:36:17;;;;;;;2.20;1.20;;;10.30;99.90;;;;;;15298391;19;20130;-78
2024/04/13 05:41:18;;;;;;;3.33;1.70;;;10.30;99.90;;;;;;15292952;19;20138;-78
2024/04/13 05:46:18;;;;;;;2.30;1.37;;;10.30;99.90;;;;;;15293202;19;20133;-77
2024/04/13 05:51:19;;;;;;;3.30;1.70;;;10.40;99.90;;;;;;15290582;19;20170;-77
2024/04/13 05:56:19;;;;;;;2.87;1.60;;;10.40;99.90;;;;;;15291242;19;20605;-77
2024/04/13 06:01:22;;;;;;;5.97;1.43;;;10.50;99.90;;;;;;15291866;19;20154;-78
2024/04/13 06:06:23;;;;;;;3.13;1.60;;;10.70;99.90;;;;;;15293868;19;20121;-78
2024/04/13 06:11:23;;;;;;;2.83;1.47;;;10.90;99.90;;;;;;15293964;19;20136;-78
2024/04/13 06:16:24;;;;;;;3.23;1.30;;;10.90;99.90;;;;;;15292516;19;20190;-77
2024/04/13 06:21:26;;;;;;;5.00;1.70;;;11.00;99.90;;;;;;15296800;19;20169;-78
2024/04/13 06:26:27;;;;;;;3.63;1.60;;;11.00;99.90;;;;;;15288864;19;20142;-78
2024/04/13 06:31:27;;;;;;;6.45;2.08;;;11.10;99.90;;;;;;15288525;19;20166;-78
2024/04/13 06:36:28;;;;;;;4.20;2.03;;;11.30;99.90;;;;;;15288714;19;20138;-78
2024/04/13 06:41:29;;;;;;;4.70;2.13;;;11.50;99.90;;;;;;15290718;19;20605;-78
2024/04/13 06:46:30;;;;;;;3.97;2.10;;;11.80;99.90;;;;;;15296864;19;20130;-78
2024/04/13 06:51:31;;;;;;;6.57;2.42;;;12.00;99.90;;;;;;15295984;19;20177;-79
2024/04/13 06:56:31;;;;;;;4.10;2.10;;;12.20;99.90;;;;;;15293110;19;20617;-79
2024/04/13 07:01:32;;;;;;;4.70;2.30;;;12.60;99.90;;;;;;15299382;19;20146;-79
2024/04/13 07:06:36;;;;;;;5.63;2.13;;;13.00;99.90;;;;;;15314005;19;20186;-80
2024/04/13 07:11:37;;;;;;;5.97;2.28;;;13.30;99.90;;;;;;15308016;19;20154;-79
2024/04/13 07:16:37;;;;;;;5.25;2.20;;;13.70;99.90;;;;;;15309399;19;20134;-80
2024/04/13 07:21:38;;;;;;;5.80;2.28;;;13.80;99.90;;;;;;15310554;19;20130;-80
2024/04/13 07:26:38;;;;;;;4.22;2.13;;;14.00;99.90;;;;;;15311921;19;20126;-82
2024/04/13 07:31:38;;;;;;;6.47;2.30;;;14.20;99.90;;;;;;15313647;19;20181;-82
2024/04/13 07:36:39;;;;;;;4.03;2.20;;;14.50;99.90;;;;;;15309238;19;20141;-80
2024/04/13 07:41:40;;;;;;;7.63;2.40;;;14.60;99.90;;;;;;15345837;19;20134;-80
2024/04/13 07:46:41;;;;;;;4.40;1.85;;;14.80;99.90;;;;;;15347396;19;20127;-79
2024/04/13 07:51:41;;;;;;;4.15;2.03;;;15.00;99.90;;;;;;15314040;19;20181;-80
2024/04/13 07:56:41;;;;;;;4.93;2.20;;;15.20;99.90;;;;;;15306353;19;20205;-80
2024/04/13 08:01:42;;;;;;;4.00;1.85;;;15.30;99.90;;;;;;15285029;19;20278;-82
2024/04/13 08:06:43;;;;;;;5.80;2.15;;;15.50;99.90;;;;;;15280058;19;20170;-80
2024/04/13 08:11:43;;;;;;;3.65;1.98;;;15.70;99.90;;;;;;15272791;19;20178;-79
2024/04/13 08:16:45;;;;;;;6.30;2.20;;;16.10;99.90;;;;;;15276842;19;20155;-80
2024/04/13 08:21:46;;;;;;;5.70;2.83;;;16.40;99.90;;;;;;15275724;19;20209;-77
2024/04/13 08:26:46;;;;;;;6.10;2.85;;;16.60;99.90;;;;;;15279058;19;20138;-79
2024/04/13 08:31:47;;;;;;;4.30;2.05;;;16.70;99.90;;;;;;15279012;19;20166;-79
2024/04/13 08:36:48;;;;;;;3.67;2.33;;;17.00;99.90;;;;;;15276271;19;20122;-79
2024/04/13 08:42:20;;;;;;;5.88;2.30;;;17.20;99.90;;;;;;15277618;19;20222;-79
2024/04/13 08:47:21;;;;;;;8.07;2.58;;;17.50;99.90;;;;;;15280521;19;20148;-79
2024/04/13 08:52:22;;;;;;;6.82;2.08;;;17.70;99.90;;;;;;15279254;19;20221;-80
2024/04/13 08:57:26;;;;;;;3.92;1.60;;;17.90;99.90;;;;;;15295032;19;20129;-80
2024/04/13 09:02:35;;;;;;;4.28;2.00;;;18.20;99.90;;;;;;15294501;19;20161;-80
2024/04/13 09:07:36;;;;;;;3.42;1.15;;;18.40;99.90;;;;;;15323611;19;20142;-80
2024/04/13 09:12:37;;;;;;;2.47;1.08;;;18.50;99.90;;;;;;15319692;19;20162;-80
2024/04/13 09:17:38;;;;;;;3.60;1.27;;;18.70;99.90;;;;;;15275594;19;20170;-79
2024/04/13 09:22:39;;;;;;;2.53;1.30;;;18.90;99.90;;;;;;15299364;19;20142;-80
2024/04/13 09:27:40;;;;;;;3.33;1.00;;;19.00;99.90;;;;;;15302113;19;20512;-80
2024/04/13 09:32:40;;;;;;;4.45;1.75;;;19.20;99.90;;;;;;15302556;19;20158;-83
2024/04/13 09:37:41;;;;;;;4.05;1.77;;;19.20;99.90;;;;;;15298796;19;20146;-83
2024/04/13 09:42:41;;;;;;;3.60;1.80;;;19.40;99.90;;;;;;15300706;19;20150;-80
2024/04/13 09:47:42;;;;;;;3.20;1.40;;;19.50;99.90;;;;;;15301785;19;20118;-82
2024/04/13 09:52:43;;;;;;;3.20;1.23;;;19.60;99.90;;;;;;15299415;19;20174;-81
2024/04/13 09:57:46;;;;;;;2.00;1.30;;;19.80;99.90;;;;;;15303609;19;20142;-80
2024/04/13 10:02:47;;;;;;;2.53;1.35;;;19.80;99.90;;;;;;15304052;19;20177;-81
2024/04/13 10:07:49;;;;;;;3.28;1.90;;;20.10;99.90;;;;;;15297446;19;20132;-81
2024/04/13 10:12:50;;;;;;;2.75;1.45;;;20.40;99.90;;;;;;15298793;19;20637;-81
2024/04/13 10:17:52;;;;;;;7.60;1.65;;;20.70;99.90;;;;;;15299011;19;20118;-81
2024/04/13 10:22:54;;;;;;;2.60;1.50;;;20.80;99.90;;;;;;15301933;19;20182;-82
2024/04/13 10:28:09;;;;;;;2.35;1.40;;;21.10;99.90;;;;;;15303585;19;20189;-81
2024/04/13 10:33:20;;;;;;;4.13;1.80;;;21.40;99.90;;;;;;15341485;19;20178;-82
2024/04/13 10:38:20;;;;;;;5.07;1.33;;;21.50;99.90;;;;;;15299094;19;20143;-81
2024/04/13 10:43:23;;;;;;;2.13;1.27;;;21.70;99.90;;;;;;15305815;19;20146;-81
2024/04/13 10:48:28;;;;;;;3.05;1.40;;;21.80;99.90;;;;;;15320844;19;20145;-81
2024/04/13 10:53:29;;;;;;;2.85;1.00;;;21.90;99.90;;;;;;15321203;19;20145;-81
2024/04/13 10:58:31;;;;;;;4.50;1.73;;;22.00;99.90;;;;;;15315851;19;20530;-82
2024/04/13 11:03:33;;;;;;;3.72;1.40;;;22.20;99.90;;;;;;15317331;19;20145;-81
2024/04/13 11:08:33;;;;;;;3.25;1.80;;;22.50;99.90;;;;;;15319894;19;20130;-81
2024/04/13 11:13:34;;;;;;;4.55;1.48;;;22.60;99.90;;;;;;15318559;19;20188;-82
2024/04/13 11:18:35;;;;;;;3.90;1.38;;;22.80;99.90;;;;;;15316341;19;20138;-82
2024/04/13 11:23:36;;;;;;;3.92;1.17;;;23.30;99.90;;;;;;15318312;19;20605;-82
2024/04/13 11:28:37;;;;;;;2.25;1.17;;;23.70;99.90;;;;;;15311548;19;20174;-86
2024/04/13 11:33:38;;;;;;;2.47;1.10;;;24.40;99.90;;;;;;15309081;19;20205;-85
2024/04/13 11:38:39;;;;;;;2.03;1.23;;;24.80;99.90;;;;;;15303310;19;20146;-85
2024/04/13 11:43:41;;;;;;;2.92;1.48;;;25.20;99.90;;;;;;15310249;19;20142;-84
2024/04/13 11:48:41;;;;;;;2.50;1.20;;;25.40;99.90;;;;;;15313692;19;20134;-85
2024/04/13 11:53:42;;;;;;;2.47;1.20;;;25.20;99.90;;;;;;15305709;19;20570;-84
2024/04/13 11:58:47;;;;;;;2.92;1.27;;;25.20;99.90;;;;;;15302998;19;20123;-83
2024/04/13 12:03:48;;;;;;;2.38;1.23;;;25.80;99.90;;;;;;15309890;19;20345;-84
2024/04/13 12:08:48;;;;;;;2.90;1.33;;;26.00;99.60;;;;;;15310515;19;20146;-84
2024/04/13 12:13:49;;;;;;;3.55;1.30;;;26.10;99.30;;;;;;15317087;19;20134;-85
2024/04/13 12:18:49;;;;;;;2.13;1.20;;;26.20;98.80;;;;;;15320927;19;20126;-83
2024/04/13 12:23:50;;;;;;;3.65;1.33;;;26.30;98.40;;;;;;15349554;19;20167;-86
2024/04/13 12:28:51;;;;;;;2.65;1.20;;;26.50;98.10;;;;;;15328212;19;20146;-85
2024/04/13 12:33:51;;;;;;;2.70;1.30;;;26.70;97.70;;;;;;15312301;19;20241;-85
2024/04/13 12:38:54;;;;;;;2.85;1.13;;;26.70;97.40;;;;;;15340377;19;20134;-85
2024/04/13 12:43:54;;;;;;;1.83;1.10;;;26.80;97.40;;;;;;15319216;19;20213;-85
2024/04/13 12:48:55;;;;;;;2.50;1.20;;;26.70;97.50;;;;;;15334077;19;20640;-84
2024/04/13 12:53:56;;;;;;;3.55;1.55;;;26.80;96.80;;;;;;15336939;19;20139;-84
2024/04/13 12:58:56;;;;;;;3.25;1.20;;;27.00;97.00;;;;;;15310842;19;20142;-84
2024/04/13 13:03:57;;;;;;;2.85;1.40;;;26.70;97.10;;;;;;15310708;19;20233;-82
2024/04/13 13:08:57;;;;;;;4.28;1.40;;;26.90;96.50;;;;;;15315217;19;20130;-84
2024/04/13 13:13:58;;;;;;;2.47;1.48;;;27.20;96.10;;;;;;15309986;19;20206;-82
2024/04/13 13:18:58;;;;;;;2.97;1.48;;;27.70;96.00;;;;;;15311588;19;20118;-83
2024/04/13 13:23:59;;;;;;;2.35;1.20;;;27.50;95.80;;;;;;15307498;19;20174;-84
2024/04/13 13:29:02;;;;;;;3.50;1.42;;;27.90;96.00;;;;;;15312281;19;20158;-84
2024/04/13 13:34:05;;;;;;;3.53;1.42;;;27.70;94.50;;;;;;15300956;19;20245;-85
2024/04/13 13:39:06;;;;;;;3.67;1.45;;;27.60;95.00;;;;;;15305886;19;20187;-85
2024/04/13 13:44:06;;;;;;;5.22;1.30;;;27.80;94.70;;;;;;15305531;19;20170;-84
2024/04/13 13:49:07;;;;;;;1.85;1.15;;;27.90;94.40;;;;;;15300401;19;20154;-83
2024/04/13 13:54:07;;;;;;;3.83;1.30;;;27.60;94.60;;;;;;15305176;19;20177;-85
2024/04/13 13:59:10;;;;;;;1.92;1.02;;;27.80;94.70;;;;;;15312699;19;20575;-84
2024/04/13 14:04:11;;;;;;;2.67;1.25;;;27.80;94.60;;;;;;15305532;19;20189;-85
2024/04/13 14:09:13;;;;;;;3.60;1.30;;;27.30;94.80;;;;;;15313138;19;20134;-85
2024/04/13 14:14:17;;;;;;;2.25;1.17;;;27.70;94.40;;;;;;15311347;19;20150;-83
2024/04/13 14:19:18;;;;;;;2.75;1.35;;;28.10;93.80;;;;;;15300107;19;20599;-84
2024/04/13 14:24:20;;;;;;;2.10;1.20;;;28.30;93.30;;;;;;15293699;19;20174;-83
2024/04/13 14:29:21;;;;;;;3.38;1.60;;;27.80;93.50;;;;;;15303915;19;20682;-83
2024/04/13 14:34:22;;;;;;;3.65;1.40;;;27.90;94.20;;;;;;15294311;19;20169;-82
2024/04/13 14:39:28;;;;;;;3.15;1.40;;;27.90;94.10;;;;;;15300990;19;20153;-82
2024/04/13 14:44:29;;;;;;;3.47;1.58;;;27.90;94.30;;;;;;15297073;19;20181;-85
2024/04/13 14:49:29;;;;;;;3.50;1.60;;;28.10;93.70;;;;;;15306532;19;20493;-85
2024/04/13 14:54:30;;;;;;;2.83;1.38;;;27.80;94.10;;;;;;15295082;19;20166;-84
2024/04/13 14:59:30;;;;;;;3.03;1.48;;;27.60;94.50;;;;;;15301928;19;20130;-84
2024/04/13 15:04:31;;;;;;;4.07;1.52;;;27.60;93.90;;;;;;15303222;19;20150;-84
2024/04/13 15:09:32;;;;;;;4.03;1.55;;;27.80;93.90;;;;;;15309121;19;20730;-83
2024/04/13 15:14:33;;;;;;;2.95;1.35;;;27.60;94.20;;;;;;15331204;19;20150;-84
2024/04/13 15:19:33;;;;;;;4.32;1.50;;;27.30;94.50;;;;;;15297671;19;20155;-85
2024/04/13 15:24:34;;;;;;;2.15;1.20;;;27.30;95.00;;;;;;15297811;19;20185;-86
2024/04/13 15:29:35;;;;;;;2.45;1.35;;;27.40;94.60;;;;;;15305911;19;20150;-83
2024/04/13 15:34:36;;;;;;;3.67;1.45;;;27.50;94.80;;;;;;15303651;19;20173;-82
2024/04/13 15:39:36;;;;;;;2.85;1.40;;;27.70;94.20;;;;;;15315156;19;20122;-83
2024/04/13 15:44:37;;;;;;;2.08;1.30;;;27.60;94.30;;;;;;15313516;19;20163;-82
2024/04/13 15:49:37;;;;;;;3.15;1.15;;;27.90;93.90;;;;;;15321579;19;20165;-82
2024/04/13 15:54:38;;;;;;;2.72;1.15;;;28.10;93.80;;;;;;15330558;19;20210;-83
2024/04/13 15:59:42;;;;;;;3.45;1.48;;;28.30;94.10;;;;;;15338985;19;20115;-81
2024/04/13 16:04:42;;;;;;;3.67;1.20;;;28.20;93.90;;;;;;15317689;19;20182;-84
2024/04/13 16:09:43;;;;;;;3.08;1.50;;;28.00;94.60;;;;;;15320200;19;20150;-81
2024/04/13 16:14:43;;;;;;;2.15;1.08;;;26.80;95.60;;;;;;15314456;19;20154;-81
2024/04/13 16:19:44;;;;;;;4.65;1.35;;;26.60;96.10;;;;;;15317797;19;20123;-82
2024/04/13 16:24:44;;;;;;;3.17;1.35;;;27.00;96.10;;;;;;15319832;19;20142;-84
2024/04/13 16:29:46;;;;;;;2.17;1.20;;;26.80;96.10;;;;;;15315203;19;20147;-81
2024/04/13 16:34:46;;;;;;;2.28;1.27;;;26.90;96.80;;;;;;15307697;19;20161;-81
2024/04/13 16:39:47;;;;;;;3.08;1.15;;;26.80;96.70;;;;;;15314285;19;20176;-81
2024/04/13 16:44:47;;;;;;;3.65;1.42;;;26.60;96.50;;;;;;15308332;19;20215;-82
2024/04/13 16:49:50;;;;;;;2.88;1.23;;;26.10;98.00;;;;;;15318552;19;20275;-82
2024/04/13 16:54:51;;;;;;;3.20;1.38;;;25.90;98.60;;;;;;15313214;19;20521;-82
2024/04/13 17:00:17;;;;;;;1.77;1.30;;;26.00;98.80;;;;;;15309825;19;20131;-82
2024/04/13 17:05:17;;;;;;;3.45;1.20;;;25.60;99.30;;;;;;15315444;19;20181;-83
2024/04/13 17:10:18;;;;;;;2.40;1.33;;;25.50;99.90;;;;;;15294710;19;20141;-80
2024/04/13 17:15:18;;;;;;;3.35;1.70;;;25.30;99.90;;;;;;15305249;19;20172;-84
2024/04/13 17:20:19;;;;;;;3.85;1.25;;;24.70;99.90;;;;;;15314546;19;20134;-84
2024/04/13 17:25:20;;;;;;;2.15;1.15;;;24.60;99.90;;;;;;15312821;19;20182;-83
2024/04/13 17:30:21;;;;;;;6.65;3.70;;;24.60;99.90;;;;;;15310122;19;20126;-84
2024/04/13 17:35:21;;;;;;;7.03;2.95;;;24.30;99.90;;;;;;15310059;19;20222;-83
2024/04/13 17:40:22;;;;;;;2.15;1.25;;;24.20;99.90;;;;;;15307162;19;20138;-81
2024/04/13 17:45:22;;;;;;;4.45;1.70;;;23.80;99.90;;;;;;15323421;19;20391;-82
2024/04/13 17:50:23;;;;;;;3.15;1.35;;;23.70;99.90;;;;;;15341493;19;20122;-84
2024/04/13 17:55:23;;;;;;;4.45;1.90;;;23.50;99.90;;;;;;15315770;19;20150;-83
2024/04/13 18:00:24;;;;;;;7.78;3.33;;;23.20;99.90;;;;;;15303400;19;20158;-83
2024/04/13 18:05:26;;;;;;;3.28;1.50;;;22.90;99.90;;;;;;15299759;19;20602;-83
2024/04/13 18:10:26;;;;;;;3.75;1.65;;;22.60;99.90;;;;;;15309017;19;20158;-84
2024/04/13 18:15:27;;;;;;;4.13;1.48;;;22.30;99.90;;;;;;15306338;19;20166;-84
2024/04/13 18:20:27;;;;;;;2.83;1.67;;;22.10;99.90;;;;;;15307903;19;20118;-83
2024/04/13 18:25:28;;;;;;;3.08;1.50;;;21.90;99.90;;;;;;15300981;19;20154;-83
2024/04/13 18:30:28;;;;;;;4.60;1.58;;;21.30;99.90;;;;;;15311600;19;20123;-83
2024/04/13 18:35:29;;;;;;;2.92;1.48;;;20.80;99.90;;;;;;15305066;19;20146;-81
2024/04/13 18:40:29;;;;;;;4.78;2.28;;;20.50;99.90;;;;;;15310055;19;20143;-82
2024/04/13 18:45:30;;;;;;;5.47;3.20;;;20.30;99.90;;;;;;15311258;19;20146;-83
2024/04/13 18:50:31;;;;;;;5.68;2.78;;;20.00;99.90;;;;;;15305822;19;20218;-83
2024/04/13 18:55:32;;;;;;;6.10;3.13;;;19.70;99.90;;;;;;15301943;19;20180;-83
2024/04/13 19:00:32;;;;;;;5.90;2.85;;;19.60;99.90;;;;;;15298390;19;20133;-82
2024/04/13 19:05:33;;;;;;;5.88;2.60;;;19.30;99.90;;;;;;15300400;19;20170;-82
2024/04/13 19:10:33;;;;;;;3.38;1.90;;;19.30;99.90;;;;;;15313030;19;20134;-83
2024/04/13 19:15:34;;;;;;;3.85;1.60;;;19.60;99.90;;;;;;15315076;19;20177;-82
2024/04/13 19:20:34;;;;;;;3.33;1.30;;;19.70;99.90;;;;;;15316780;19;20154;-82
2024/04/13 19:25:35;;;;;;;4.55;2.30;;;19.50;99.90;;;;;;15307869;19;20174;-83
2024/04/13 19:30:36;;;;;;;5.18;2.00;;;19.60;99.90;;;;;;15318187;19;20135;-81
2024/04/13 19:35:36;;;;;;;4.05;2.13;;;19.40;99.90;;;;;;15321981;19;20497;-81
2024/04/13 19:40:37;;;;;;;4.03;2.20;;;19.10;99.90;;;;;;15314341;19;20122;-82
2024/04/13 19:45:38;;;;;;;3.40;2.13;;;18.80;99.90;;;;;;15320030;19;20159;-80
2024/04/13 19:50:38;;;;;;;3.42;1.50;;;18.60;99.90;;;;;;15324545;19;20601;-81
2024/04/13 19:55:39;;;;;;;5.32;2.00;;;18.60;99.90;;;;;;15315170;19;20159;-81
2024/04/13 20:00:39;;;;;;;3.75;1.75;;;18.80;99.90;;;;;;15318259;19;20163;-81
2024/04/13 20:05:40;;;;;;;3.03;1.70;;;18.90;99.90;;;;;;15367589;19;20146;-82
2024/04/13 20:10:40;;;;;;;2.67;1.33;;;19.00;99.90;;;;;;15308653;19;20138;-82
2024/04/13 20:21:01;;;;;;;3.35;1.60;;;18.70;99.90;;;;;;15309874;19;20776;-84
2024/04/13 20:26:01;;;;;;;8.77;2.15;;;18.60;99.90;;;;;;15311969;19;20149;-81
2024/04/13 20:31:02;;;;;;;3.92;2.00;;;18.40;99.90;;;;;;15312166;19;20201;-81
2024/04/13 20:36:02;;;;;;;7.95;2.30;;;18.10;99.90;;;;;;15311627;19;20980;-82
2024/04/13 20:41:03;;;;;;;5.05;3.08;;;18.00;99.90;;;;;;15307471;19;20150;-83
2024/04/13 20:46:04;;;;;;;4.85;1.80;;;18.00;99.90;;;;;;15306426;19;20126;-84
2024/04/13 20:51:04;;;;;;;4.38;1.63;;;18.00;99.90;;;;;;15310412;19;20158;-81
2024/04/13 20:56:06;;;;;;;3.83;1.60;;;18.10;99.90;;;;;;15300154;19;20170;-82
2024/04/13 21:01:06;;;;;;;2.35;1.45;;;18.30;99.90;;;;;;15295108;19;20258;-81
2024/04/13 21:06:13;;;;;;;2.47;1.38;;;18.30;99.90;;;;;;15300863;19;20146;-82
2024/04/13 21:11:14;;;;;;;3.60;1.50;;;18.50;99.90;;;;;;15299951;19;20229;-80
2024/04/13 21:16:15;;;;;;;3.88;1.90;;;18.50;99.90;;;;;;15304886;19;20126;-81
2024/04/13 21:21:15;;;;;;;3.50;1.70;;;18.50;99.90;;;;;;15303373;19;20138;-81
2024/04/13 21:26:16;;;;;;;4.40;1.52;;;18.40;99.90;;;;;;15291810;19;20193;-81
2024/04/13 21:31:16;;;;;;;3.00;1.35;;;18.40;99.90;;;;;;15300000;19;20613;-81
2024/04/13 21:36:18;;;;;;;2.17;1.33;;;18.40;99.90;;;;;;15299653;19;20140;-82
2024/04/13 21:41:19;;;;;;;3.65;1.75;;;18.50;99.90;;;;;;15298170;19;20146;-81
2024/04/13 21:46:19;;;;;;;3.65;2.22;;;18.50;99.90;;;;;;15299956;19;20122;-82
2024/04/13 21:51:20;;;;;;;4.25;2.10;;;18.40;99.90;;;;;;15289148;19;20176;-81
2024/04/13 21:56:22;;;;;;;2.80;1.40;;;18.30;99.90;;;;;;15301751;19;20119;-82
2024/04/13 22:01:24;;;;;;;5.10;1.77;;;18.10;99.90;;;;;;15299884;19;20186;-83
2024/04/13 22:06:24;;;;;;;2.58;1.30;;;18.20;99.90;;;;;;15314534;19;20152;-82
2024/04/13 22:11:25;;;;;;;3.40;1.38;;;18.20;99.90;;;;;;15297722;19;20183;-81
2024/04/13 22:16:28;;;;;;;6.68;2.22;;;18.10;99.90;;;;;;15301936;19;20154;-79
2024/04/13 22:21:28;;;;;;;2.90;1.42;;;17.80;99.90;;;;;;15300909;19;20158;-80
2024/04/13 22:26:30;;;;;;;3.20;1.60;;;17.50;99.90;;;;;;15294406;19;20134;-81
2024/04/13 22:31:33;;;;;;;4.60;1.52;;;17.30;99.90;;;;;;15303267;19;20265;-82
2024/04/13 22:36:34;;;;;;;2.50;1.30;;;17.00;99.90;;;;;;15299096;19;20525;-82
2024/04/13 22:41:34;;;;;;;1.55;1.08;;;17.00;99.90;;;;;;15296454;19;20166;-83
2024/04/13 22:46:35;;;;;;;1.90;0.90;;;17.40;99.90;;;;;;15299188;19;20122;-84
2024/04/13 22:51:35;;;;;;;2.83;1.10;;;17.60;99.90;;;;;;15302942;19;20178;-84
2024/04/13 22:56:36;;;;;;;2.03;1.17;;;17.60;99.90;;;;;;15347589;19;20138;-83
2024/04/13 23:01:36;;;;;;;4.85;2.13;;;17.50;99.90;;;;;;15328276;19;20150;-83
2024/04/13 23:06:37;;;;;;;2.28;1.30;;;17.30;99.90;;;;;;15313517;19;20126;-84
2024/04/13 23:11:38;;;;;;;2.03;0.93;;;17.40;99.90;;;;;;15307325;19;20210;-82
2024/04/13 23:16:39;;;;;;;3.72;1.60;;;17.30;99.90;;;;;;15317163;19;20127;-82
2024/04/13 23:21:40;;;;;;;2.40;1.17;;;16.90;99.90;;;;;;15309043;19;20150;-82
2024/04/13 23:26:43;;;;;;;3.45;1.42;;;16.70;99.90;;;;;;15312703;19;20155;-83
2024/04/13 23:31:43;;;;;;;2.67;1.38;;;16.60;99.90;;;;;;15314292;19;20201;-84
2024/04/13 23:36:44;;;;;;;3.42;1.58;;;16.40;99.90;;;;;;15315514;19;20149;-85
2024/04/13 23:41:45;;;;;;;2.53;1.27;;;16.30;99.90;;;;;;15326580;19;20167;-83
2024/04/13 23:46:45;;;;;;;3.33;1.35;;;16.20;99.90;;;;;;15320306;19;20142;-83
2024/04/13 23:51:46;;;;;;;1.90;1.00;;;16.40;99.90;;;;;;15323747;19;20178;-82
2024/04/13 23:56:47;;;;;;;3.55;1.20;;;16.30;99.90;;;;;;15331081;19;20131;-83
